Time,TemperatureF,DewpointF,PressureIn,WindDirection,WindDirectionDegrees,WindSpeedMPH,WindSpeedGustMPH,Humidity,HourlyPrecipIn,Conditions,Clouds,dailyrainin,SoftwareType,DateUTC
2013-04-18 14:46:00,46.8,35.2,29.41,NE,48,0.0,0.0,64,0.12,,,0.00,VWS V12.08,2013-04-18 21:46:00,
2013-04-18 14:47:00,46.8,35.2,29.41,NE,48,0.0,0.0,64,0.12,,,0.00,VWS V12.08,2013-04-18 21:47:00,
2013-04-18 14:50:00,46.8,35.2,29.41,NE,48,0.0,0.0,64,0.12,,,0.00,VWS V12.08,2013-04-18 21:50:00,
2013-04-18 14:55:00,46.9,35.4,29.41,NE,48,0.0,0.0,64,0.12,,,0.00,VWS V12.08,2013-04-18 21:55:00,
2013-04-18 15:00:00,46.9,35.4,29.41,NE,48,0.0,0.0,64,0.12,,,0.00,VWS V12.08,2013-04-18 22:00:00,
2013-04-18 15:05:00,47.1,36.0,29.41,NE,48,0.0,0.0,65,0.12,,,0.00,VWS V12.08,2013-04-18 22:05:00,
2013-04-18 15:10:00,47.1,36.0,29.41,NE,48,0.0,0.0,65,0.12,,,0.00,VWS V12.08,2013-04-18 22:10:00,
2013-04-18 15:15:00,47.1,36.0,29.41,NE,48,0.0,0.0,65,0.12,,,0.00,VWS V12.08,2013-04-18 22:15:00,
2013-04-18 15:20:00,47.1,36.0,29.41,NE,48,0.0,0.0,65,0.12,,,0.00,VWS V12.08,2013-04-18 22:20:00,
2013-04-18 15:25:00,47.1,36.0,29.41,North,1,0.0,0.0,65,0.12,,,0.00,VWS V12.08,2013-04-18 22:25:00,
2013-04-18 15:30:00,46.9,35.8,29.41,West,269,0.0,0.0,65,0.12,,,0.00,VWS V12.08,2013-04-18 22:30:00,
2013-04-18 15:36:00,46.8,35.6,29.41,NE,35,0.0,0.0,65,0.12,,,0.00,VWS V12.08,2013-04-18 22:36:00,
2013-04-18 15:41:00,46.8,35.6,29.41,WNW,299,0.0,0.0,65,0.12,,,0.00,VWS V12.08,2013-04-18 22:41:00,
2013-04-18 15:46:00,46.8,36.0,29.39,NW,324,0.0,0.0,66,0.12,,,0.00,VWS V12.08,2013-04-18 22:46:00,
2013-04-18 15:51:00,46.4,35.7,29.39,North,3,0.0,0.0,66,0.00,,,0.00,VWS V12.08,2013-04-18 22:51:00,
2013-04-18 15:56:00,46.4,35.7,29.39,North,3,0.0,0.0,66,0.00,,,0.00,VWS V12.08,2013-04-18 22:56:00,
2013-04-18 16:01:00,46.4,35.7,29.39,North,3,0.0,0.0,66,0.04,,,0.04,VWS V12.08,2013-04-18 23:01:00,
2013-04-18 16:06:00,46.4,35.7,29.39,North,3,0.0,0.0,66,0.04,,,0.04,VWS V12.08,2013-04-18 23:06:00,
2013-04-18 16:11:00,46.2,35.9,29.39,NW,326,0.0,0.0,67,0.04,,,0.04,VWS V12.08,2013-04-18 23:11:00,
2013-04-18 16:16:00,46.0,35.7,29.39,NNW,327,0.0,0.0,67,0.04,,,0.04,VWS V12.08,2013-04-18 23:16:00,
2013-04-18 16:21:00,46.0,35.7,29.39,WSW,253,0.0,0.0,67,0.04,,,0.04,VWS V12.08,2013-04-18 23:21:00,
2013-04-18 16:26:00,45.9,35.5,29.39,WSW,254,0.0,0.0,67,0.04,,,0.04,VWS V12.08,2013-04-18 23:26:00,
2013-04-18 16:31:00,45.9,35.9,29.39,WSW,256,0.0,0.0,68,0.04,,,0.04,VWS V12.08,2013-04-18 23:31:00,
2013-04-18 16:36:00,45.9,35.9,29.39,West,277,0.0,0.0,68,0.04,,,0.04,VWS V12.08,2013-04-18 23:36:00,
2013-04-18 16:41:00,45.9,36.3,29.39,West,276,0.0,0.0,69,0.04,,,0.04,VWS V12.08,2013-04-18 23:41:00,
2013-04-18 16:46:00,45.9,36.3,29.39,West,276,0.0,0.0,69,0.04,,,0.04,VWS V12.08,2013-04-18 23:46:00,
2013-04-18 16:51:00,45.9,36.3,29.39,West,276,0.0,0.0,69,0.04,,,0.04,VWS V12.08,2013-04-18 23:51:00,
2013-04-18 16:56:00,46.0,36.8,29.39,West,276,0.0,0.0,70,0.04,,,0.04,VWS V12.08,2013-04-18 23:56:00,
2013-04-18 17:01:00,46.2,37.0,29.36,West,276,0.0,0.0,70,0.04,,,0.04,VWS V12.08,2013-04-19 00:01:00,
2013-04-18 17:06:00,46.4,37.2,29.36,West,276,0.0,0.0,70,0.00,,,0.04,VWS V12.08,2013-04-19 00:06:00,
2013-04-18 17:11:00,46.6,37.0,29.36,West,278,0.0,0.0,69,0.00,,,0.04,VWS V12.08,2013-04-19 00:11:00,
2013-04-18 17:16:00,46.6,37.0,29.36,West,278,0.0,0.0,69,0.00,,,0.04,VWS V12.08,2013-04-19 00:16:00,
2013-04-18 17:21:00,46.6,37.0,29.36,West,279,0.0,0.0,69,0.00,,,0.04,VWS V12.08,2013-04-19 00:21:00,
2013-04-18 17:26:00,46.4,36.8,29.36,West,279,0.0,0.0,69,0.00,,,0.04,VWS V12.08,2013-04-19 00:26:00,
2013-04-18 17:31:00,46.4,36.8,29.36,West,279,0.0,0.0,69,0.00,,,0.04,VWS V12.08,2013-04-19 00:31:00,
2013-04-18 17:36:00,46.4,36.8,29.36,West,279,0.0,0.0,69,0.00,,,0.04,VWS V12.08,2013-04-19 00:36:00,
2013-04-18 17:41:00,46.4,37.2,29.36,WNW,290,0.0,0.0,70,0.00,,,0.04,VWS V12.08,2013-04-19 00:41:00,
2013-04-18 17:46:00,46.4,37.2,29.36,WNW,290,0.0,0.0,70,0.00,,,0.04,VWS V12.08,2013-04-19 00:46:00,
2013-04-18 17:51:00,46.4,37.2,29.36,WNW,290,0.0,0.0,70,0.00,,,0.04,VWS V12.08,2013-04-19 00:51:00,
2013-04-18 22:08:00,45.0,36.8,29.27,SSW,200,0.0,0.0,73,0.04,,,0.08,VWS V12.08,2013-04-19 05:08:00,
2013-04-18 22:09:00,45.0,36.8,29.27,SSW,200,0.0,0.0,73,0.04,,,0.08,VWS V12.08,2013-04-19 05:09:00,
2013-04-18 22:10:00,45.0,36.8,29.27,SSW,200,0.0,0.0,73,0.04,,,0.08,VWS V12.08,2013-04-19 05:10:00,
2013-04-18 22:11:00,45.0,36.8,29.27,SSW,200,0.0,0.0,73,0.04,,,0.08,VWS V12.08,2013-04-19 05:11:00,
2013-04-18 22:16:00,45.0,36.8,29.27,SSW,200,0.0,0.0,73,0.04,,,0.08,VWS V12.08,2013-04-19 05:16:00,
2013-04-18 22:21:00,45.1,37.0,29.27,SSW,200,0.0,0.0,73,0.04,,,0.08,VWS V12.08,2013-04-19 05:21:00,
2013-04-18 22:26:00,45.1,37.0,29.27,SSW,200,0.0,0.0,73,0.04,,,0.08,VWS V12.08,2013-04-19 05:26:00,
2013-04-18 22:31:00,45.3,37.2,29.27,SSW,200,0.0,0.0,73,0.04,,,0.08,VWS V12.08,2013-04-19 05:31:00,
2013-04-18 22:36:00,45.3,37.2,29.27,SSW,200,0.0,0.0,73,0.04,,,0.08,VWS V12.08,2013-04-19 05:36:00,
2013-04-18 22:41:00,45.3,37.5,29.27,SSW,200,0.0,0.0,74,0.04,,,0.08,VWS V12.08,2013-04-19 05:41:00,
2013-04-18 22:46:00,45.3,37.5,29.27,South,190,0.0,0.0,74,0.04,,,0.08,VWS V12.08,2013-04-19 05:46:00,
2013-04-18 22:51:00,45.5,37.7,29.27,South,189,0.0,0.0,74,0.04,,,0.08,VWS V12.08,2013-04-19 05:51:00,
2013-04-18 22:56:00,45.5,37.7,29.27,South,189,0.0,0.0,74,0.04,,,0.08,VWS V12.08,2013-04-19 05:56:00,